sensor_id;sensor_type;location;lat;lon;timestamp;pressure;altitude;pressure_sealevel;temperature;humidity
77003;BME280;65939;50.060;14.288;2023-06-24T00:00:12;97825.97;;;13.80;100.00
77003;BME280;65939;50.060;14.288;2023-06-24T00:02:13;97825.97;;;13.80;100.00
77003;BME280;65939;50.060;14.288;2023-06-24T00:04:14;97812.03;;;13.79;100.00
77003;BME280;65939;50.060;14.288;2023-06-24T00:06:15;97817.16;;;13.81;100.00
77003;BME280;65939;50.060;14.288;2023-06-24T00:08:18;97804.84;;;13.81;100.00
77003;BME280;65939;50.060;14.288;2023-06-24T00:10:19;97813.34;;;13.83;100.00
77003;BME280;65939;50.060;14.288;2023-06-24T00:12:20;97809.78;;;13.84;100.00
77003;BME280;65939;50.060;14.288;2023-06-24T00:14:21;97811.41;;;13.85;100.00
77003;BME280;65939;50.060;14.288;2023-06-24T00:16:24;97811.41;;;13.85;100.00
77003;BME280;65939;50.060;14.288;2023-06-24T00:18:27;97804.19;;;13.87;100.00
77003;BME280;65939;50.060;14.288;2023-06-24T00:20:29;97803.34;;;13.87;100.00
77003;BME280;65939;50.060;14.288;2023-06-24T00:22:30;97804.69;;;13.91;100.00
77003;BME280;65939;50.060;14.288;2023-06-24T00:24:30;97802.72;;;13.93;100.00
77003;BME280;65939;50.060;14.288;2023-06-24T00:26:31;97805.00;;;13.96;100.00
77003;BME280;65939;50.060;14.288;2023-06-24T00:28:32;97804.81;;;13.98;100.00
77003;BME280;65939;50.060;14.288;2023-06-24T00:30:33;97811.41;;;14.02;100.00
77003;BME280;65939;50.060;14.288;2023-06-24T00:32:34;97813.06;;;14.03;100.00
77003;BME280;65939;50.060;14.288;2023-06-24T00:34:35;97817.31;;;14.04;100.00
77003;BME280;65939;50.060;14.288;2023-06-24T00:36:36;97815.50;;;14.04;100.00
77003;BME280;65939;50.060;14.288;2023-06-24T00:38:39;97827.66;;;14.05;100.00
77003;BME280;65939;50.060;14.288;2023-06-24T00:40:41;97832.06;;;14.05;100.00
77003;BME280;65939;50.060;14.288;2023-06-24T00:42:45;97847.00;;;14.04;100.00
77003;BME280;65939;50.060;14.288;2023-06-24T00:44:46;97840.28;;;14.02;100.00
77003;BME280;65939;50.060;14.288;2023-06-24T00:46:48;97837.81;;;14.00;100.00
77003;BME280;65939;50.060;14.288;2023-06-24T00:48:49;97839.63;;;14.00;100.00
77003;BME280;65939;50.060;14.288;2023-06-24T00:50:51;97853.75;;;13.99;100.00
77003;BME280;65939;50.060;14.288;2023-06-24T00:52:52;97844.22;;;13.98;100.00
77003;BME280;65939;50.060;14.288;2023-06-24T00:54:52;97840.63;;;13.99;100.00
77003;BME280;65939;50.060;14.288;2023-06-24T00:56:53;97838.00;;;13.99;100.00
77003;BME280;65939;50.060;14.288;2023-06-24T00:58:58;97834.69;;;13.97;100.00
77003;BME280;65939;50.060;14.288;2023-06-24T01:01:01;97842.25;;;14.00;100.00
77003;BME280;65939;50.060;14.288;2023-06-24T01:03:03;97836.00;;;14.01;100.00
77003;BME280;65939;50.060;14.288;2023-06-24T01:05:05;97837.00;;;14.00;100.00
77003;BME280;65939;50.060;14.288;2023-06-24T01:07:08;97839.81;;;13.98;100.00
77003;BME280;65939;50.060;14.288;2023-06-24T01:09:10;97843.25;;;13.99;100.00
77003;BME280;65939;50.060;14.288;2023-06-24T01:11:10;97837.81;;;14.00;100.00
77003;BME280;65939;50.060;14.288;2023-06-24T01:13:11;97841.25;;;14.01;100.00
77003;BME280;65939;50.060;14.288;2023-06-24T01:15:12;97844.88;;;14.00;100.00
77003;BME280;65939;50.060;14.288;2023-06-24T01:17:24;97843.88;;;14.01;100.00
77003;BME280;65939;50.060;14.288;2023-06-24T01:31:32;97829.78;;;14.02;100.00
77003;BME280;65939;50.060;14.288;2023-06-24T01:34:01;97837.66;;;14.02;100.00
77003;BME280;65939;50.060;14.288;2023-06-24T01:36:08;97835.69;;;14.04;100.00
77003;BME280;65939;50.060;14.288;2023-06-24T01:38:22;97828.47;;;14.06;100.00
77003;BME280;65939;50.060;14.288;2023-06-24T01:40:32;97835.38;;;14.07;100.00
77003;BME280;65939;50.060;14.288;2023-06-24T01:42:41;97825.19;;;14.04;100.00
77003;BME280;65939;50.060;14.288;2023-06-24T01:44:45;97823.56;;;14.03;100.00
77003;BME280;65939;50.060;14.288;2023-06-24T01:46:55;97830.44;;;14.04;100.00
77003;BME280;65939;50.060;14.288;2023-06-24T01:49:01;97818.94;;;14.05;100.00
77003;BME280;65939;50.060;14.288;2023-06-24T01:51:17;97830.13;;;14.07;100.00
77003;BME280;65939;50.060;14.288;2023-06-24T01:53:20;97829.78;;;14.10;100.00
77003;BME280;65939;50.060;14.288;2023-06-24T01:55:25;97827.66;;;14.13;100.00
77003;BME280;65939;50.060;14.288;2023-06-24T01:57:27;97826.66;;;14.14;100.00
77003;BME280;65939;50.060;14.288;2023-06-24T01:59:29;97827.47;;;14.15;100.00
77003;BME280;65939;50.060;14.288;2023-06-24T02:01:37;97835.22;;;14.17;100.00
77003;BME280;65939;50.060;14.288;2023-06-24T02:03:41;97834.88;;;14.20;100.00
77003;BME280;65939;50.060;14.288;2023-06-24T02:05:44;97840.94;;;14.20;100.00
77003;BME280;65939;50.060;14.288;2023-06-24T02:07:48;97844.22;;;14.22;100.00
77003;BME280;65939;50.060;14.288;2023-06-24T02:09:51;97842.25;;;14.24;100.00
77003;BME280;65939;50.060;14.288;2023-06-24T02:11:53;97843.75;;;14.27;100.00
77003;BME280;65939;50.060;14.288;2023-06-24T02:13:55;97851.44;;;14.28;100.00
77003;BME280;65939;50.060;14.288;2023-06-24T02:15:59;97853.06;;;14.29;100.00
77003;BME280;65939;50.060;14.288;2023-06-24T02:18:02;97857.00;;;14.33;100.00
77003;BME280;65939;50.060;14.288;2023-06-24T02:20:08;97863.59;;;14.37;100.00
77003;BME280;65939;50.060;14.288;2023-06-24T02:22:11;97854.72;;;14.38;100.00
77003;BME280;65939;50.060;14.288;2023-06-24T02:24:14;97851.91;;;14.40;100.00
77003;BME280;65939;50.060;14.288;2023-06-24T02:26:16;97861.28;;;14.43;100.00
77003;BME280;65939;50.060;14.288;2023-06-24T02:28:18;97861.78;;;14.46;100.00
77003;BME280;65939;50.060;14.288;2023-06-24T02:30:21;97866.84;;;14.48;100.00
77003;BME280;65939;50.060;14.288;2023-06-24T02:32:22;97872.94;;;14.48;100.00
77003;BME280;65939;50.060;14.288;2023-06-24T02:34:23;97877.22;;;14.49;100.00
77003;BME280;65939;50.060;14.288;2023-06-24T02:36:24;97874.44;;;14.51;100.00
77003;BME280;65939;50.060;14.288;2023-06-24T02:38:25;97871.47;;;14.54;100.00
77003;BME280;65939;50.060;14.288;2023-06-24T02:40:27;97872.16;;;14.56;100.00
77003;BME280;65939;50.060;14.288;2023-06-24T02:42:28;97874.59;;;14.57;100.00
77003;BME280;65939;50.060;14.288;2023-06-24T02:44:29;97875.41;;;14.58;100.00
77003;BME280;65939;50.060;14.288;2023-06-24T02:46:33;97870.47;;;14.55;100.00
77003;BME280;65939;50.060;14.288;2023-06-24T02:48:36;97866.41;;;14.52;100.00
77003;BME280;65939;50.060;14.288;2023-06-24T02:50:38;97863.09;;;14.50;100.00
77003;BME280;65939;50.060;14.288;2023-06-24T02:52:42;97874.28;;;14.52;100.00
77003;BME280;65939;50.060;14.288;2023-06-24T02:54:44;97869.19;;;14.51;100.00
77003;BME280;65939;50.060;14.288;2023-06-24T02:56:45;97878.88;;;14.50;100.00
77003;BME280;65939;50.060;14.288;2023-06-24T02:58:46;97886.59;;;14.52;100.00
77003;BME280;65939;50.060;14.288;2023-06-24T03:00:47;97891.69;;;14.53;100.00
77003;BME280;65939;50.060;14.288;2023-06-24T03:02:50;97892.34;;;14.55;100.00
77003;BME280;65939;50.060;14.288;2023-06-24T03:04:52;97900.88;;;14.57;100.00
77003;BME280;65939;50.060;14.288;2023-06-24T03:06:53;97895.28;;;14.60;100.00
77003;BME280;65939;50.060;14.288;2023-06-24T03:08:55;97898.59;;;14.63;100.00
77003;BME280;65939;50.060;14.288;2023-06-24T03:10:56;97897.59;;;14.64;100.00
77003;BME280;65939;50.060;14.288;2023-06-24T03:12:57;97897.41;;;14.65;100.00
77003;BME280;65939;50.060;14.288;2023-06-24T03:14:58;97904.34;;;14.66;100.00
77003;BME280;65939;50.060;14.288;2023-06-24T03:16:59;97913.19;;;14.65;100.00
77003;BME280;65939;50.060;14.288;2023-06-24T03:18:59;97916.66;;;14.66;100.00
77003;BME280;65939;50.060;14.288;2023-06-24T03:21:00;97917.28;;;14.68;100.00
77003;BME280;65939;50.060;14.288;2023-06-24T03:23:01;97915.47;;;14.68;100.00
77003;BME280;65939;50.060;14.288;2023-06-24T03:25:02;97921.41;;;14.70;100.00
77003;BME280;65939;50.060;14.288;2023-06-24T03:27:03;97920.41;;;14.71;100.00
77003;BME280;65939;50.060;14.288;2023-06-24T03:29:04;97928.28;;;14.71;100.00
77003;BME280;65939;50.060;14.288;2023-06-24T03:31:05;97925.66;;;14.71;100.00
77003;BME280;65939;50.060;14.288;2023-06-24T03:33:05;97917.78;;;14.71;100.00
77003;BME280;65939;50.060;14.288;2023-06-24T03:35:06;97915.00;;;14.73;100.00
77003;BME280;65939;50.060;14.288;2023-06-24T03:37:07;97922.03;;;14.72;100.00
77003;BME280;65939;50.060;14.288;2023-06-24T03:39:08;97921.06;;;14.73;100.00
77003;BME280;65939;50.060;14.288;2023-06-24T03:41:08;97922.72;;;14.74;100.00
77003;BME280;65939;50.060;14.288;2023-06-24T03:43:09;97927.16;;;14.74;100.00
77003;BME280;65939;50.060;14.288;2023-06-24T03:45:10;97927.97;;;14.74;100.00
77003;BME280;65939;50.060;14.288;2023-06-24T03:47:11;97928.97;;;14.73;100.00
77003;BME280;65939;50.060;14.288;2023-06-24T03:49:12;97932.22;;;14.75;100.00
77003;BME280;65939;50.060;14.288;2023-06-24T03:51:12;97931.25;;;14.76;100.00
77003;BME280;65939;50.060;14.288;2023-06-24T03:53:13;97940.59;;;14.79;100.00
77003;BME280;65939;50.060;14.288;2023-06-24T03:55:14;97935.19;;;14.80;100.00
77003;BME280;65939;50.060;14.288;2023-06-24T03:57:14;97939.78;;;14.78;100.00
77003;BME280;65939;50.060;14.288;2023-06-24T03:59:15;97936.16;;;14.79;100.00
77003;BME280;65939;50.060;14.288;2023-06-24T04:01:16;97938.63;;;14.81;100.00
77003;BME280;65939;50.060;14.288;2023-06-24T04:03:19;97935.00;;;14.82;100.00
77003;BME280;65939;50.060;14.288;2023-06-24T04:05:21;97926.81;;;14.85;100.00
77003;BME280;65939;50.060;14.288;2023-06-24T04:07:22;97928.44;;;14.86;100.00
77003;BME280;65939;50.060;14.288;2023-06-24T04:09:29;97933.53;;;14.88;100.00
77003;BME280;65939;50.060;14.288;2023-06-24T04:11:30;97931.56;;;14.90;100.00
77003;BME280;65939;50.060;14.288;2023-06-24T04:13:30;97930.59;;;14.91;100.00
77003;BME280;65939;50.060;14.288;2023-06-24T04:15:31;97924.47;;;14.90;100.00
77003;BME280;65939;50.060;14.288;2023-06-24T04:17:31;97925.97;;;14.93;100.00
77003;BME280;65939;50.060;14.288;2023-06-24T04:19:32;97927.25;;;14.97;100.00
77003;BME280;65939;50.060;14.288;2023-06-24T04:21:33;97923.31;;;15.01;100.00
77003;BME280;65939;50.060;14.288;2023-06-24T04:23:33;97924.16;;;15.01;100.00
77003;BME280;65939;50.060;14.288;2023-06-24T04:25:34;97928.22;;;15.04;100.00
77003;BME280;65939;50.060;14.288;2023-06-24T04:27:35;97928.91;;;15.06;100.00
77003;BME280;65939;50.060;14.288;2023-06-24T04:29:36;97929.53;;;15.08;100.00
77003;BME280;65939;50.060;14.288;2023-06-24T04:31:37;97926.91;;;15.08;100.00
77003;BME280;65939;50.060;14.288;2023-06-24T04:33:38;97933.00;;;15.08;100.00
77003;BME280;65939;50.060;14.288;2023-06-24T04:35:38;97932.84;;;15.10;100.00
77003;BME280;65939;50.060;14.288;2023-06-24T04:37:39;97934.31;;;15.13;100.00
77003;BME280;65939;50.060;14.288;2023-06-24T04:39:40;97933.31;;;15.14;100.00
77003;BME280;65939;50.060;14.288;2023-06-24T04:41:40;97937.56;;;15.15;100.00
77003;BME280;65939;50.060;14.288;2023-06-24T04:43:41;97940.72;;;15.10;100.00
77003;BME280;65939;50.060;14.288;2023-06-24T04:45:42;97944.97;;;15.11;100.00
77003;BME280;65939;50.060;14.288;2023-06-24T04:47:42;97944.97;;;15.11;100.00
77003;BME280;65939;50.060;14.288;2023-06-24T04:49:43;97948.44;;;15.12;100.00
77003;BME280;65939;50.060;14.288;2023-06-24T04:51:44;97946.28;;;15.15;100.00
77003;BME280;65939;50.060;14.288;2023-06-24T04:53:45;97945.31;;;15.16;100.00
77003;BME280;65939;50.060;14.288;2023-06-24T04:55:46;97947.63;;;15.19;100.00
77003;BME280;65939;50.060;14.288;2023-06-24T04:57:47;97931.84;;;15.19;100.00
77003;BME280;65939;50.060;14.288;2023-06-24T04:59:47;97940.22;;;15.23;100.00
77003;BME280;65939;50.060;14.288;2023-06-24T05:01:49;97951.22;;;15.26;100.00
77003;BME280;65939;50.060;14.288;2023-06-24T05:03:50;97952.03;;;15.27;100.00
77003;BME280;65939;50.060;14.288;2023-06-24T05:05:50;97944.94;;;15.27;100.00
77003;BME280;65939;50.060;14.288;2023-06-24T05:07:51;97951.69;;;15.30;100.00
77003;BME280;65939;50.060;14.288;2023-06-24T05:09:52;97961.84;;;15.33;100.00
77003;BME280;65939;50.060;14.288;2023-06-24T05:11:52;97952.19;;;15.33;100.00
77003;BME280;65939;50.060;14.288;2023-06-24T05:13:53;97966.16;;;15.34;100.00
77003;BME280;65939;50.060;14.288;2023-06-24T05:15:54;97959.88;;;15.35;100.00
77003;BME280;65939;50.060;14.288;2023-06-24T05:17:55;97960.19;;;15.40;100.00
77003;BME280;65939;50.060;14.288;2023-06-24T05:19:56;97963.47;;;15.42;100.00
77003;BME280;65939;50.060;14.288;2023-06-24T05:21:57;97968.56;;;15.44;100.00
77003;BME280;65939;50.060;14.288;2023-06-24T05:23:57;97969.22;;;15.46;100.00
77003;BME280;65939;50.060;14.288;2023-06-24T05:25:58;97964.63;;;15.48;100.00
77003;BME280;65939;50.060;14.288;2023-06-24T05:27:59;97958.84;;;15.52;100.00
77003;BME280;65939;50.060;14.288;2023-06-24T05:30:00;97971.50;;;15.57;100.00
77003;BME280;65939;50.060;14.288;2023-06-24T05:32:00;97967.53;;;15.61;100.00
77003;BME280;65939;50.060;14.288;2023-06-24T05:34:03;97968.34;;;15.62;100.00
77003;BME280;65939;50.060;14.288;2023-06-24T05:36:04;97980.34;;;15.64;100.00
77003;BME280;65939;50.060;14.288;2023-06-24T05:38:05;97975.78;;;15.66;100.00
77003;BME280;65939;50.060;14.288;2023-06-24T05:40:06;97981.84;;;15.67;100.00
77003;BME280;65939;50.060;14.288;2023-06-24T05:42:07;97979.88;;;15.69;100.00
77003;BME280;65939;50.060;14.288;2023-06-24T05:44:09;97986.59;;;15.71;100.00
77003;BME280;65939;50.060;14.288;2023-06-24T05:46:13;97989.06;;;15.73;100.00
77003;BME280;65939;50.060;14.288;2023-06-24T05:48:13;97989.56;;;15.76;100.00
77003;BME280;65939;50.060;14.288;2023-06-24T05:50:14;97992.81;;;15.78;100.00
77003;BME280;65939;50.060;14.288;2023-06-24T05:52:15;97996.13;;;15.80;100.00
77003;BME280;65939;50.060;14.288;2023-06-24T05:54:16;98004.03;;;15.80;100.00
77003;BME280;65939;50.060;14.288;2023-06-24T05:56:17;98011.09;;;15.80;100.00
77003;BME280;65939;50.060;14.288;2023-06-24T05:58:18;98006.81;;;15.79;100.00
77003;BME280;65939;50.060;14.288;2023-06-24T06:00:19;98001.53;;;15.79;100.00
77003;BME280;65939;50.060;14.288;2023-06-24T06:02:19;98008.47;;;15.80;100.00
77003;BME280;65939;50.060;14.288;2023-06-24T06:04:20;98007.47;;;15.81;100.00
77003;BME280;65939;50.060;14.288;2023-06-24T06:06:20;98014.69;;;15.79;100.00
77003;BME280;65939;50.060;14.288;2023-06-24T06:08:21;98012.44;;;15.76;100.00
77003;BME280;65939;50.060;14.288;2023-06-24T06:10:22;98009.31;;;15.72;100.00
77003;BME280;65939;50.060;14.288;2023-06-24T06:12:23;98007.03;;;15.69;100.00
77003;BME280;65939;50.060;14.288;2023-06-24T06:14:23;98018.72;;;15.67;100.00
77003;BME280;65939;50.060;14.288;2023-06-24T06:16:24;98018.53;;;15.68;100.00
77003;BME280;65939;50.060;14.288;2023-06-24T06:18:25;98024.09;;;15.65;100.00
77003;BME280;65939;50.060;14.288;2023-06-24T06:20:26;98022.78;;;15.61;100.00
77003;BME280;65939;50.060;14.288;2023-06-24T06:22:27;98024.63;;;15.61;100.00
77003;BME280;65939;50.060;14.288;2023-06-24T06:24:27;98035.63;;;15.64;100.00
77003;BME280;65939;50.060;14.288;2023-06-24T06:26:28;98026.72;;;15.65;100.00
77003;BME280;65939;50.060;14.288;2023-06-24T06:28:29;98029.06;;;15.68;100.00
77003;BME280;65939;50.060;14.288;2023-06-24T06:30:29;98030.72;;;15.69;100.00
77003;BME280;65939;50.060;14.288;2023-06-24T06:32:30;98034.81;;;15.72;100.00
77003;BME280;65939;50.060;14.288;2023-06-24T06:34:31;98036.28;;;15.74;100.00
77003;BME280;65939;50.060;14.288;2023-06-24T06:36:31;98035.28;;;15.75;100.00
77003;BME280;65939;50.060;14.288;2023-06-24T06:38:33;98038.91;;;15.74;100.00
77003;BME280;65939;50.060;14.288;2023-06-24T06:40:34;98034.31;;;15.76;100.00
77003;BME280;65939;50.060;14.288;2023-06-24T06:42:35;98030.16;;;15.82;100.00
77003;BME280;65939;50.060;14.288;2023-06-24T06:44:36;98027.66;;;15.89;100.00
77003;BME280;65939;50.060;14.288;2023-06-24T06:46:37;98022.22;;;15.98;100.00
77003;BME280;65939;50.060;14.288;2023-06-24T06:48:37;98021.81;;;16.10;100.00
77003;BME280;65939;50.060;14.288;2023-06-24T06:50:38;98025.53;;;16.23;100.00
77003;BME280;65939;50.060;14.288;2023-06-24T06:52:39;98028.25;;;16.38;100.00
77003;BME280;65939;50.060;14.288;2023-06-24T06:54:39;98020.41;;;16.53;100.00
77003;BME280;65939;50.060;14.288;2023-06-24T06:56:40;98024.44;;;16.64;100.00
77003;BME280;65939;50.060;14.288;2023-06-24T06:58:41;98021.44;;;16.75;100.00
77003;BME280;65939;50.060;14.288;2023-06-24T07:00:41;98017.75;;;16.84;100.00
77003;BME280;65939;50.060;14.288;2023-06-24T07:02:42;98016.75;;;17.00;100.00
77003;BME280;65939;50.060;14.288;2023-06-24T07:04:43;98013.19;;;17.16;100.00
77003;BME280;65939;50.060;14.288;2023-06-24T07:06:44;98024.22;;;17.34;100.00
77003;BME280;65939;50.060;14.288;2023-06-24T07:08:45;98012.75;;;17.57;100.00
77003;BME280;65939;50.060;14.288;2023-06-24T07:10:46;98017.66;;;17.75;100.00
77003;BME280;65939;50.060;14.288;2023-06-24T07:12:47;98010.94;;;17.87;100.00
77003;BME280;65939;50.060;14.288;2023-06-24T07:14:47;98012.75;;;18.01;100.00
77003;BME280;65939;50.060;14.288;2023-06-24T07:16:48;98008.81;;;18.12;100.00
77003;BME280;65939;50.060;14.288;2023-06-24T07:18:48;98007.50;;;18.23;100.00
77003;BME280;65939;50.060;14.288;2023-06-24T07:20:49;98010.03;;;18.31;100.00
77003;BME280;65939;50.060;14.288;2023-06-24T07:22:50;98012.56;;;18.39;100.00
77003;BME280;65939;50.060;14.288;2023-06-24T07:24:50;98012.19;;;18.42;100.00
77003;BME280;65939;50.060;14.288;2023-06-24T07:26:51;98006.78;;;18.50;100.00
77003;BME280;65939;50.060;14.288;2023-06-24T07:28:52;98007.47;;;18.59;100.00
77003;BME280;65939;50.060;14.288;2023-06-24T07:30:53;98010.28;;;18.72;100.00
77003;BME280;65939;50.060;14.288;2023-06-24T07:32:54;98010.22;;;18.87;100.00
77003;BME280;65939;50.060;14.288;2023-06-24T07:34:54;98003.81;;;19.03;100.00
77003;BME280;65939;50.060;14.288;2023-06-24T07:36:55;97998.66;;;19.23;100.00
77003;BME280;65939;50.060;14.288;2023-06-24T07:38:56;97999.09;;;19.26;100.00
77003;BME280;65939;50.060;14.288;2023-06-24T07:40:56;97997.91;;;19.29;100.00
77003;BME280;65939;50.060;14.288;2023-06-24T07:42:57;98003.44;;;19.34;100.00
77003;BME280;65939;50.060;14.288;2023-06-24T07:44:58;97997.09;;;19.35;100.00
77003;BME280;65939;50.060;14.288;2023-06-24T07:46:58;97990.81;;;19.36;100.00
77003;BME280;65939;50.060;14.288;2023-06-24T07:48:59;97991.22;;;19.33;100.00
77003;BME280;65939;50.060;14.288;2023-06-24T07:51:00;97996.88;;;19.30;100.00
77003;BME280;65939;50.060;14.288;2023-06-24T07:53:00;97997.09;;;19.28;100.00
77003;BME280;65939;50.060;14.288;2023-06-24T07:55:01;98000.44;;;19.16;100.00
77003;BME280;65939;50.060;14.288;2023-06-24T07:57:02;98004.25;;;19.06;100.00
77003;BME280;65939;50.060;14.288;2023-06-24T07:59:03;98006.66;;;19.01;100.00
77003;BME280;65939;50.060;14.288;2023-06-24T08:01:04;98010.31;;;19.00;100.00
77003;BME280;65939;50.060;14.288;2023-06-24T08:03:05;98011.88;;;18.95;100.00
77003;BME280;65939;50.060;14.288;2023-06-24T08:05:06;98013.22;;;18.84;98.50
77003;BME280;65939;50.060;14.288;2023-06-24T08:07:06;98009.75;;;18.83;99.02
77003;BME280;65939;50.060;14.288;2023-06-24T08:09:07;98009.31;;;19.01;100.00
77003;BME280;65939;50.060;14.288;2023-06-24T08:11:08;98012.13;;;19.21;99.66
77003;BME280;65939;50.060;14.288;2023-06-24T08:13:08;98008.56;;;19.42;98.52
77003;BME280;65939;50.060;14.288;2023-06-24T08:15:10;98009.16;;;19.66;99.34
77003;BME280;65939;50.060;14.288;2023-06-24T08:17:10;98002.72;;;19.88;98.82
77003;BME280;65939;50.060;14.288;2023-06-24T08:19:11;98002.22;;;20.13;97.73
77003;BME280;65939;50.060;14.288;2023-06-24T08:21:12;98005.34;;;20.36;97.34
77003;BME280;65939;50.060;14.288;2023-06-24T08:23:12;98007.06;;;20.50;95.89
77003;BME280;65939;50.060;14.288;2023-06-24T08:25:13;98005.16;;;20.44;91.66
77003;BME280;65939;50.060;14.288;2023-06-24T08:27:14;98013.25;;;20.23;89.27
77003;BME280;65939;50.060;14.288;2023-06-24T08:29:15;98011.56;;;20.02;89.25
77003;BME280;65939;50.060;14.288;2023-06-24T08:31:15;98019.44;;;19.82;89.66
77003;BME280;65939;50.060;14.288;2023-06-24T08:33:16;98017.94;;;19.73;91.80
77003;BME280;65939;50.060;14.288;2023-06-24T08:35:17;98015.66;;;19.63;90.92
77003;BME280;65939;50.060;14.288;2023-06-24T08:37:18;98011.94;;;19.57;90.92
77003;BME280;65939;50.060;14.288;2023-06-24T08:39:18;98013.09;;;19.48;90.71
77003;BME280;65939;50.060;14.288;2023-06-24T08:41:19;98016.56;;;19.49;91.33
77003;BME280;65939;50.060;14.288;2023-06-24T08:43:20;98016.97;;;19.52;90.77
77003;BME280;65939;50.060;14.288;2023-06-24T08:45:20;98021.31;;;19.60;91.84
77003;BME280;65939;50.060;14.288;2023-06-24T08:47:23;98027.06;;;19.64;91.09
77003;BME280;65939;50.060;14.288;2023-06-24T08:49:28;98011.63;;;19.74;90.70
77003;BME280;65939;50.060;14.288;2023-06-24T08:51:35;98009.28;;;19.92;92.26
77003;BME280;65939;50.060;14.288;2023-06-24T08:53:42;98016.06;;;20.08;90.45
77003;BME280;65939;50.060;14.288;2023-06-24T08:55:45;98013.66;;;20.20;90.78
77003;BME280;65939;50.060;14.288;2023-06-24T08:57:46;98011.25;;;20.25;89.25
77003;BME280;65939;50.060;14.288;2023-06-24T08:59:47;98013.69;;;20.26;88.20
77003;BME280;65939;50.060;14.288;2023-06-24T09:01:47;98017.59;;;20.37;89.48
77003;BME280;65939;50.060;14.288;2023-06-24T09:03:48;98020.34;;;20.57;90.25
77003;BME280;65939;50.060;14.288;2023-06-24T09:05:49;98014.22;;;20.76;88.68
77003;BME280;65939;50.060;14.288;2023-06-24T09:07:50;98023.22;;;20.89;86.70
77003;BME280;65939;50.060;14.288;2023-06-24T09:09:50;98017.31;;;20.93;85.62
77003;BME280;65939;50.060;14.288;2023-06-24T09:14:00;98011.16;;;21.19;86.73
77003;BME280;65939;50.060;14.288;2023-06-24T09:16:14;98013.63;;;21.47;90.06
77003;BME280;65939;50.060;14.288;2023-06-24T09:18:14;98009.31;;;21.53;85.42
77003;BME280;65939;50.060;14.288;2023-06-24T09:20:19;98008.69;;;21.51;84.47
77003;BME280;65939;50.060;14.288;2023-06-24T09:22:22;98017.69;;;21.57;84.36
77003;BME280;65939;50.060;14.288;2023-06-24T09:24:27;98016.88;;;21.49;82.41
77003;BME280;65939;50.060;14.288;2023-06-24T09:26:28;98020.94;;;21.52;81.94
77003;BME280;65939;50.060;14.288;2023-06-24T09:28:30;98011.34;;;21.58;81.09
77003;BME280;65939;50.060;14.288;2023-06-24T09:30:31;98016.00;;;21.75;84.56
77003;BME280;65939;50.060;14.288;2023-06-24T09:32:31;98015.53;;;21.98;81.16
77003;BME280;65939;50.060;14.288;2023-06-24T09:34:32;98001.97;;;22.07;78.57
77003;BME280;65939;50.060;14.288;2023-06-24T09:36:33;98003.03;;;22.06;80.00
77003;BME280;65939;50.060;14.288;2023-06-24T09:38:35;98006.09;;;22.03;80.79
77003;BME280;65939;50.060;14.288;2023-06-24T09:40:36;98007.31;;;22.07;79.39
77003;BME280;65939;50.060;14.288;2023-06-24T09:42:51;98017.97;;;21.93;77.99
77003;BME280;65939;50.060;14.288;2023-06-24T09:44:55;98015.16;;;21.82;79.49
77003;BME280;65939;50.060;14.288;2023-06-24T09:46:56;98023.34;;;21.80;78.81
77003;BME280;65939;50.060;14.288;2023-06-24T09:48:57;98018.63;;;21.89;76.97
77003;BME280;65939;50.060;14.288;2023-06-24T09:51:01;98015.53;;;21.98;76.75
77003;BME280;65939;50.060;14.288;2023-06-24T09:53:03;98018.75;;;22.07;77.37
77003;BME280;65939;50.060;14.288;2023-06-24T09:55:07;98019.19;;;21.97;76.45
77003;BME280;65939;50.060;14.288;2023-06-24T09:57:08;98016.38;;;21.92;77.79
77003;BME280;65939;50.060;14.288;2023-06-24T09:59:12;98015.91;;;22.02;78.07
77003;BME280;65939;50.060;14.288;2023-06-24T10:01:13;98017.47;;;22.23;79.34
77003;BME280;65939;50.060;14.288;2023-06-24T10:03:15;98016.81;;;22.34;76.68
77003;BME280;65939;50.060;14.288;2023-06-24T10:05:15;98010.00;;;22.45;77.32
77003;BME280;65939;50.060;14.288;2023-06-24T10:07:16;98016.28;;;22.57;75.82
77003;BME280;65939;50.060;14.288;2023-06-24T10:09:17;98019.28;;;22.67;74.38
77003;BME280;65939;50.060;14.288;2023-06-24T10:11:20;98012.50;;;22.71;75.39
77003;BME280;65939;50.060;14.288;2023-06-24T10:13:21;98014.69;;;22.81;73.50
77003;BME280;65939;50.060;14.288;2023-06-24T10:15:22;98024.06;;;22.84;72.84
77003;BME280;65939;50.060;14.288;2023-06-24T10:17:23;98013.22;;;22.85;72.97
77003;BME280;65939;50.060;14.288;2023-06-24T10:19:24;98017.88;;;22.97;73.16
77003;BME280;65939;50.060;14.288;2023-06-24T10:21:47;98019.38;;;23.11;72.38
77003;BME280;65939;50.060;14.288;2023-06-24T10:23:53;98016.28;;;23.14;72.30
77003;BME280;65939;50.060;14.288;2023-06-24T10:25:54;98019.72;;;23.21;71.89
77003;BME280;65939;50.060;14.288;2023-06-24T10:27:54;98016.81;;;23.23;70.09
77003;BME280;65939;50.060;14.288;2023-06-24T10:29:55;98017.19;;;23.26;69.71
77003;BME280;65939;50.060;14.288;2023-06-24T10:32:08;98018.41;;;23.30;71.00
77003;BME280;65939;50.060;14.288;2023-06-24T10:34:26;98008.88;;;23.41;71.20
77003;BME280;65939;50.060;14.288;2023-06-24T10:36:36;98009.72;;;23.60;69.29
77003;BME280;65939;50.060;14.288;2023-06-24T10:38:37;97999.13;;;23.72;68.27
77003;BME280;65939;50.060;14.288;2023-06-24T10:40:40;97999.44;;;23.82;67.27
77003;BME280;65939;50.060;14.288;2023-06-24T10:42:43;97994.84;;;23.89;67.89
77003;BME280;65939;50.060;14.288;2023-06-24T10:44:48;97993.34;;;23.93;69.54